sensor_id;sensor_type;location;lat;lon;timestamp;pressure;altitude;pressure_sealevel;temperature;humidity
76297;BME280;65104;52.994;6.552;2022-12-07T00:01:09;101609.59;;;2.44;93.12
76297;BME280;65104;52.994;6.552;2022-12-07T00:03:36;101624.41;;;2.51;93.26
76297;BME280;65104;52.994;6.552;2022-12-07T00:06:03;101623.53;;;2.51;93.01
76297;BME280;65104;52.994;6.552;2022-12-07T00:08:29;101623.94;;;2.57;92.83
76297;BME280;65104;52.994;6.552;2022-12-07T00:10:55;101620.16;;;2.50;93.10
76297;BME280;65104;52.994;6.552;2022-12-07T00:13:25;101618.19;;;2.46;93.27
76297;BME280;65104;52.994;6.552;2022-12-07T00:15:50;101617.19;;;2.44;92.60
76297;BME280;65104;52.994;6.552;2022-12-07T00:18:16;101621.59;;;2.34;92.98
76297;BME280;65104;52.994;6.552;2022-12-07T00:20:41;101611.97;;;2.41;92.46
76297;BME280;65104;52.994;6.552;2022-12-07T00:23:07;101614.06;;;2.35;92.77
76297;BME280;65104;52.994;6.552;2022-12-07T00:25:32;101601.41;;;2.48;91.82
76297;BME280;65104;52.994;6.552;2022-12-07T00:27:57;101593.91;;;2.50;92.09
76297;BME280;65104;52.994;6.552;2022-12-07T00:30:23;101594.09;;;2.53;91.71
76297;BME280;65104;52.994;6.552;2022-12-07T00:32:49;101594.59;;;2.47;91.91
76297;BME280;65104;52.994;6.552;2022-12-07T00:35:14;101596.53;;;2.51;91.73
76297;BME280;65104;52.994;6.552;2022-12-07T00:37:40;101591.28;;;2.48;92.67
76297;BME280;65104;52.994;6.552;2022-12-07T00:40:06;101592.25;;;2.37;92.67
76297;BME280;65104;52.994;6.552;2022-12-07T00:42:31;101591.16;;;2.34;92.73
76297;BME280;65104;52.994;6.552;2022-12-07T00:44:57;101589.44;;;2.33;92.13
76297;BME280;65104;52.994;6.552;2022-12-07T00:47:22;101594.59;;;2.34;92.19
76297;BME280;65104;52.994;6.552;2022-12-07T00:49:47;101594.59;;;2.34;91.83
76297;BME280;65104;52.994;6.552;2022-12-07T00:52:13;101593.03;;;2.23;91.95
76297;BME280;65104;52.994;6.552;2022-12-07T00:54:39;101584.16;;;2.30;92.00
76297;BME280;65104;52.994;6.552;2022-12-07T00:57:05;101593.03;;;2.23;92.07
76297;BME280;65104;52.994;6.552;2022-12-07T00:59:30;101583.47;;;2.19;92.55
76297;BME280;65104;52.994;6.552;2022-12-07T01:01:55;101572.28;;;2.29;92.55
76297;BME280;65104;52.994;6.552;2022-12-07T01:04:21;101573.06;;;2.41;92.10
76297;BME280;65104;52.994;6.552;2022-12-07T01:06:46;101574.78;;;2.42;92.27
76297;BME280;65104;52.994;6.552;2022-12-07T01:09:11;101564.75;;;2.43;91.03
76297;BME280;65104;52.994;6.552;2022-12-07T01:11:37;101565.34;;;2.39;91.86
76297;BME280;65104;52.994;6.552;2022-12-07T01:14:02;101569.53;;;2.39;91.63
76297;BME280;65104;52.994;6.552;2022-12-07T01:16:30;101576.16;;;2.37;91.93
76297;BME280;65104;52.994;6.552;2022-12-07T01:18:56;101574.78;;;2.42;91.45
76297;BME280;65104;52.994;6.552;2022-12-07T01:21:31;101579.19;;;2.44;92.09
76297;BME280;65104;52.994;6.552;2022-12-07T01:24:01;101582.03;;;2.49;91.95
76297;BME280;65104;52.994;6.552;2022-12-07T01:26:27;101589.63;;;2.49;91.67
76297;BME280;65104;52.994;6.552;2022-12-07T01:28:53;101599.25;;;2.54;92.39
76297;BME280;65104;52.994;6.552;2022-12-07T01:31:22;101587.25;;;2.52;92.28
76297;BME280;65104;52.994;6.552;2022-12-07T01:33:54;101580.53;;;2.66;92.15
76297;BME280;65104;52.994;6.552;2022-12-07T01:36:26;101569.41;;;2.63;92.24
76297;BME280;65104;52.994;6.552;2022-12-07T01:38:56;101580.13;;;2.73;92.62
76297;BME280;65104;52.994;6.552;2022-12-07T01:41:23;101570.06;;;2.74;91.85
76297;BME280;65104;52.994;6.552;2022-12-07T01:44:27;101580.31;;;2.76;92.43
76297;BME280;65104;52.994;6.552;2022-12-07T01:47:00;101594.16;;;2.81;92.02
76297;BME280;65104;52.994;6.552;2022-12-07T01:49:27;101595.91;;;2.82;92.75
76297;BME280;65104;52.994;6.552;2022-12-07T01:52:01;101589.06;;;2.81;92.82
76297;BME280;65104;52.994;6.552;2022-12-07T01:54:29;101586.91;;;2.87;92.76
76297;BME280;65104;52.994;6.552;2022-12-07T01:56:56;101581.06;;;2.88;92.60
76297;BME280;65104;52.994;6.552;2022-12-07T01:59:23;101576.72;;;3.00;92.27
76297;BME280;65104;52.994;6.552;2022-12-07T02:01:50;101586.69;;;2.97;92.66
76297;BME280;65104;52.994;6.552;2022-12-07T02:04:15;101578.03;;;2.93;92.49
76297;BME280;65104;52.994;6.552;2022-12-07T02:06:42;101579.03;;;2.82;92.71
76297;BME280;65104;52.994;6.552;2022-12-07T02:09:09;101574.47;;;2.77;93.63
76297;BME280;65104;52.994;6.552;2022-12-07T02:11:35;101581.09;;;2.75;93.71
76297;BME280;65104;52.994;6.552;2022-12-07T02:14:01;101577.69;;;2.61;93.77
76297;BME280;65104;52.994;6.552;2022-12-07T02:19:20;101566.13;;;2.38;94.37
76297;BME280;65104;52.994;6.552;2022-12-07T02:22:48;101565.44;;;2.28;94.72
76297;BME280;65104;52.994;6.552;2022-12-07T02:25:02;101571.88;;;2.36;94.74
76297;BME280;65104;52.994;6.552;2022-12-07T02:27:43;101568.94;;;2.43;94.23
76297;BME280;65104;52.994;6.552;2022-12-07T02:30:16;101572.56;;;2.46;94.06
76297;BME280;65104;52.994;6.552;2022-12-07T02:38:02;101577.69;;;2.61;93.36
76297;BME280;65104;52.994;6.552;2022-12-07T02:40:39;101572.72;;;2.62;93.96
76297;BME280;65104;52.994;6.552;2022-12-07T02:43:27;101557.41;;;2.61;93.94
76297;BME280;65104;52.994;6.552;2022-12-07T02:45:57;101555.16;;;2.66;93.28
76297;BME280;65104;52.994;6.552;2022-12-07T02:48:24;101563.03;;;2.70;93.26
76297;BME280;65104;52.994;6.552;2022-12-07T02:50:52;101565.31;;;2.66;92.78
76297;BME280;65104;52.994;6.552;2022-12-07T02:53:41;101563.47;;;2.63;92.81
76297;BME280;65104;52.994;6.552;2022-12-07T02:56:30;101573.34;;;2.58;93.82
76297;BME280;65104;52.994;6.552;2022-12-07T03:10:24;101561.84;;;2.50;93.43
76297;BME280;65104;52.994;6.552;2022-12-07T03:15:58;101549.03;;;2.62;93.09
76297;BME280;65104;52.994;6.552;2022-12-07T03:18:30;101543.69;;;2.44;92.86
76297;BME280;65104;52.994;6.552;2022-12-07T03:21:00;101542.53;;;2.39;93.31
76297;BME280;65104;52.994;6.552;2022-12-07T03:23:28;101549.69;;;2.32;94.47
76297;BME280;65104;52.994;6.552;2022-12-07T03:25:58;101547.41;;;2.36;93.83
76297;BME280;65104;52.994;6.552;2022-12-07T03:28:28;101552.06;;;2.43;93.53
76297;BME280;65104;52.994;6.552;2022-12-07T03:31:01;101551.41;;;2.46;93.71
76297;BME280;65104;52.994;6.552;2022-12-07T03:36:35;101540.75;;;2.51;93.91
76297;BME280;65104;52.994;6.552;2022-12-07T03:39:33;101547.47;;;2.51;94.22
76297;BME280;65104;52.994;6.552;2022-12-07T03:42:00;101543.38;;;2.53;93.55
76297;BME280;65104;52.994;6.552;2022-12-07T03:44:28;101534.53;;;2.46;94.10
76297;BME280;65104;52.994;6.552;2022-12-07T03:49:46;101534.53;;;2.59;93.11
76297;BME280;65104;52.994;6.552;2022-12-07T03:52:30;101538.41;;;2.68;92.99
76297;BME280;65104;52.994;6.552;2022-12-07T03:55:32;101536.91;;;2.71;92.62
76297;BME280;65104;52.994;6.552;2022-12-07T03:58:06;101534.59;;;2.61;92.45
76297;BME280;65104;52.994;6.552;2022-12-07T04:00:33;101525.94;;;2.57;93.29
76297;BME280;65104;52.994;6.552;2022-12-07T04:02:58;101532.25;;;2.51;93.57
76297;BME280;65104;52.994;6.552;2022-12-07T04:05:24;101525.38;;;2.48;92.83
76297;BME280;65104;52.994;6.552;2022-12-07T04:07:50;101534.34;;;2.43;93.42
76297;BME280;65104;52.994;6.552;2022-12-07T04:10:15;101525.78;;;2.41;93.48
76297;BME280;65104;52.994;6.552;2022-12-07T04:12:41;101530.19;;;2.31;93.41
76297;BME280;65104;52.994;6.552;2022-12-07T04:15:07;101534.47;;;2.32;93.12
76297;BME280;65104;52.994;6.552;2022-12-07T04:17:33;101539.59;;;2.33;93.59
76297;BME280;65104;52.994;6.552;2022-12-07T04:19:58;101536.88;;;2.43;93.81
76297;BME280;65104;52.994;6.552;2022-12-07T04:22:23;101536.88;;;2.43;93.64
76297;BME280;65104;52.994;6.552;2022-12-07T04:24:52;101534.72;;;2.49;93.37
76297;BME280;65104;52.994;6.552;2022-12-07T04:27:17;101541.06;;;2.43;93.72
76297;BME280;65104;52.994;6.552;2022-12-07T04:29:43;101544.31;;;2.40;93.58
76297;BME280;65104;52.994;6.552;2022-12-07T04:32:08;101545.75;;;2.50;93.84
76297;BME280;65104;52.994;6.552;2022-12-07T04:34:33;101544.25;;;2.53;93.21
76297;BME280;65104;52.994;6.552;2022-12-07T04:36:59;101532.34;;;2.66;92.78
76297;BME280;65104;52.994;6.552;2022-12-07T04:39:28;101526.41;;;2.65;92.67
76297;BME280;65104;52.994;6.552;2022-12-07T04:41:54;101526.50;;;2.67;93.29
76297;BME280;65104;52.994;6.552;2022-12-07T04:44:21;101523.88;;;2.65;92.88
76297;BME280;65104;52.994;6.552;2022-12-07T04:46:47;101527.09;;;2.62;93.06
76297;BME280;65104;52.994;6.552;2022-12-07T04:49:13;101523.00;;;2.64;93.74
76297;BME280;65104;52.994;6.552;2022-12-07T04:51:39;101521.78;;;2.73;93.04
76297;BME280;65104;52.994;6.552;2022-12-07T04:54:05;101517.50;;;2.72;93.72
76297;BME280;65104;52.994;6.552;2022-12-07T04:56:34;101513.06;;;2.54;93.37
76297;BME280;65104;52.994;6.552;2022-12-07T04:59:01;101510.72;;;2.57;93.36
76297;BME280;65104;52.994;6.552;2022-12-07T05:01:26;101504.59;;;2.54;94.08
76297;BME280;65104;52.994;6.552;2022-12-07T05:03:52;101515.66;;;2.69;92.90
76297;BME280;65104;52.994;6.552;2022-12-07T05:06:18;101525.63;;;2.66;93.51
76297;BME280;65104;52.994;6.552;2022-12-07T05:08:43;101525.94;;;2.57;93.74
76297;BME280;65104;52.994;6.552;2022-12-07T05:11:09;101521.75;;;2.58;94.08
76297;BME280;65104;52.994;6.552;2022-12-07T05:13:55;101529.97;;;2.69;93.14
76297;BME280;65104;52.994;6.552;2022-12-07T05:16:21;101523.19;;;2.68;92.99
76297;BME280;65104;52.994;6.552;2022-12-07T05:18:46;101529.72;;;2.51;93.07
76297;BME280;65104;52.994;6.552;2022-12-07T05:21:11;101525.47;;;2.37;93.63
76297;BME280;65104;52.994;6.552;2022-12-07T05:23:37;101519.31;;;2.33;93.73
76297;BME280;65104;52.994;6.552;2022-12-07T05:26:02;101522.00;;;2.21;94.41
76297;BME280;65104;52.994;6.552;2022-12-07T05:28:27;101518.75;;;2.24;93.86
76297;BME280;65104;52.994;6.552;2022-12-07T05:30:53;101523.75;;;2.22;94.47
76297;BME280;65104;52.994;6.552;2022-12-07T05:33:18;101517.50;;;2.17;94.08
76297;BME280;65104;52.994;6.552;2022-12-07T05:35:43;101520.03;;;2.17;94.12
76297;BME280;65104;52.994;6.552;2022-12-07T05:38:09;101516.03;;;2.08;93.88
76297;BME280;65104;52.994;6.552;2022-12-07T05:40:34;101517.63;;;2.06;93.88
76297;BME280;65104;52.994;6.552;2022-12-07T05:43:01;101515.88;;;2.05;93.88
76297;BME280;65104;52.994;6.552;2022-12-07T05:45:26;101513.72;;;1.98;93.82
76297;BME280;65104;52.994;6.552;2022-12-07T05:47:52;101508.06;;;1.88;94.18
76297;BME280;65104;52.994;6.552;2022-12-07T05:50:17;101512.75;;;1.96;94.29
76297;BME280;65104;52.994;6.552;2022-12-07T05:52:42;101507.00;;;1.85;94.44
76297;BME280;65104;52.994;6.552;2022-12-07T05:55:08;101508.56;;;1.83;94.31
76297;BME280;65104;52.994;6.552;2022-12-07T05:57:34;101507.97;;;1.87;94.87
76297;BME280;65104;52.994;6.552;2022-12-07T05:59:59;101501.06;;;1.84;94.42
76297;BME280;65104;52.994;6.552;2022-12-07T06:02:24;101508.56;;;1.83;94.38
76297;BME280;65104;52.994;6.552;2022-12-07T06:04:50;101505.63;;;1.77;94.07
76297;BME280;65104;52.994;6.552;2022-12-07T06:07:16;101510.59;;;1.75;94.53
76297;BME280;65104;52.994;6.552;2022-12-07T06:09:42;101517.41;;;1.89;94.32
76297;BME280;65104;52.994;6.552;2022-12-07T06:12:11;101511.66;;;1.92;93.60
76297;BME280;65104;52.994;6.552;2022-12-07T06:14:55;101511.59;;;2.04;92.73
76297;BME280;65104;52.994;6.552;2022-12-07T06:17:21;101504.28;;;1.95;92.72
76297;BME280;65104;52.994;6.552;2022-12-07T06:19:46;101506.50;;;1.91;93.01
76297;BME280;65104;52.994;6.552;2022-12-07T06:22:12;101498.34;;;1.95;93.46
76297;BME280;65104;52.994;6.552;2022-12-07T06:24:38;101503.78;;;2.01;92.75
76297;BME280;65104;52.994;6.552;2022-12-07T06:27:07;101500.88;;;1.95;93.80
76297;BME280;65104;52.994;6.552;2022-12-07T06:29:32;101502.03;;;1.86;93.58
76297;BME280;65104;52.994;6.552;2022-12-07T06:31:58;101498.34;;;1.95;93.38
76297;BME280;65104;52.994;6.552;2022-12-07T06:34:25;101506.97;;;1.98;93.29
76297;BME280;65104;52.994;6.552;2022-12-07T06:36:52;101510.78;;;1.92;93.36
76297;BME280;65104;52.994;6.552;2022-12-07T06:39:20;101513.41;;;2.06;93.55
76297;BME280;65104;52.994;6.552;2022-12-07T06:41:46;101530.56;;;2.10;93.67
76297;BME280;65104;52.994;6.552;2022-12-07T06:44:12;101522.19;;;2.11;93.40
76297;BME280;65104;52.994;6.552;2022-12-07T06:46:37;101523.81;;;2.24;92.51
76297;BME280;65104;52.994;6.552;2022-12-07T06:49:04;101522.16;;;2.24;93.08
76297;BME280;65104;52.994;6.552;2022-12-07T06:51:30;101519.94;;;2.29;92.71
76297;BME280;65104;52.994;6.552;2022-12-07T06:53:56;101518.50;;;2.33;92.42
76297;BME280;65104;52.994;6.552;2022-12-07T06:56:21;101518.38;;;2.31;92.74
76297;BME280;65104;52.994;6.552;2022-12-07T06:58:50;101512.34;;;2.29;92.71
76297;BME280;65104;52.994;6.552;2022-12-07T07:01:17;101520.63;;;2.26;92.48
76297;BME280;65104;52.994;6.552;2022-12-07T07:03:44;101525.00;;;2.16;93.49
76297;BME280;65104;52.994;6.552;2022-12-07T07:06:10;101529.41;;;2.18;93.18
76297;BME280;65104;52.994;6.552;2022-12-07T07:08:37;101522.09;;;2.23;92.63
76297;BME280;65104;52.994;6.552;2022-12-07T07:11:03;101526.09;;;2.19;91.87
76297;BME280;65104;52.994;6.552;2022-12-07T07:13:29;101521.00;;;2.06;92.47
76297;BME280;65104;52.994;6.552;2022-12-07T07:15:55;101520.34;;;1.96;93.10
76297;BME280;65104;52.994;6.552;2022-12-07T07:18:20;101518.50;;;1.93;93.03
76297;BME280;65104;52.994;6.552;2022-12-07T07:20:46;101522.50;;;2.03;92.45
76297;BME280;65104;52.994;6.552;2022-12-07T07:23:12;101517.81;;;1.96;93.00
76297;BME280;65104;52.994;6.552;2022-12-07T07:25:40;101520.16;;;1.93;93.54
76297;BME280;65104;52.994;6.552;2022-12-07T07:28:05;101520.06;;;2.04;93.71
76297;BME280;65104;52.994;6.552;2022-12-07T07:30:31;101523.28;;;2.02;93.48
76297;BME280;65104;52.994;6.552;2022-12-07T07:32:57;101529.59;;;1.95;93.13
76297;BME280;65104;52.994;6.552;2022-12-07T07:35:24;101529.59;;;1.95;93.58
76297;BME280;65104;52.994;6.552;2022-12-07T07:37:49;101533.09;;;1.97;93.85
76297;BME280;65104;52.994;6.552;2022-12-07T07:40:15;101539.25;;;2.01;93.53
76297;BME280;65104;52.994;6.552;2022-12-07T07:42:40;101542.75;;;2.03;93.39
76297;BME280;65104;52.994;6.552;2022-12-07T07:45:06;101541.09;;;2.03;93.20
76297;BME280;65104;52.994;6.552;2022-12-07T07:47:32;101538.75;;;2.06;92.78
76297;BME280;65104;52.994;6.552;2022-12-07T07:49:57;101539.63;;;2.07;93.03
76297;BME280;65104;52.994;6.552;2022-12-07T07:52:23;101542.44;;;1.98;93.59
76297;BME280;65104;52.994;6.552;2022-12-07T07:54:48;101533.97;;;1.98;92.95
76297;BME280;65104;52.994;6.552;2022-12-07T07:57:14;101544.50;;;1.91;93.49
76297;BME280;65104;52.994;6.552;2022-12-07T07:59:40;101536.69;;;1.74;93.85
76297;BME280;65104;52.994;6.552;2022-12-07T08:02:07;101539.59;;;1.80;93.85
76297;BME280;65104;52.994;6.552;2022-12-07T08:04:35;101534.16;;;1.74;94.16
76297;BME280;65104;52.994;6.552;2022-12-07T08:07:01;101535.09;;;1.63;94.12
76297;BME280;65104;52.994;6.552;2022-12-07T08:09:26;101537.53;;;1.62;94.29
76297;BME280;65104;52.994;6.552;2022-12-07T08:11:51;101535.97;;;1.64;94.43
76297;BME280;65104;52.994;6.552;2022-12-07T08:14:17;101523.50;;;1.54;94.90
76297;BME280;65104;52.994;6.552;2022-12-07T08:16:42;101537.81;;;1.53;94.29
76297;BME280;65104;52.994;6.552;2022-12-07T08:19:07;101542.41;;;1.72;94.33
76297;BME280;65104;52.994;6.552;2022-12-07T08:21:33;101547.31;;;1.82;94.32
76297;BME280;65104;52.994;6.552;2022-12-07T08:23:58;101554.44;;;1.87;94.27
76297;BME280;65104;52.994;6.552;2022-12-07T08:26:24;101555.50;;;1.91;93.98
76297;BME280;65104;52.994;6.552;2022-12-07T08:28:49;101566.91;;;2.11;93.07
76297;BME280;65104;52.994;6.552;2022-12-07T08:31:16;101567.78;;;2.38;92.59
76297;BME280;65104;52.994;6.552;2022-12-07T08:33:45;101557.13;;;2.56;92.08
76297;BME280;65104;52.994;6.552;2022-12-07T08:36:12;101536.28;;;2.47;91.86
76297;BME280;65104;52.994;6.552;2022-12-07T08:38:39;101517.88;;;2.50;92.59
76297;BME280;65104;52.994;6.552;2022-12-07T08:41:06;101524.41;;;2.46;92.48
76297;BME280;65104;52.994;6.552;2022-12-07T08:43:32;101519.91;;;2.42;92.31
76297;BME280;65104;52.994;6.552;2022-12-07T08:46:19;101518.19;;;2.28;93.16
76297;BME280;65104;52.994;6.552;2022-12-07T08:48:49;101528.22;;;2.26;93.57
76297;BME280;65104;52.994;6.552;2022-12-07T08:51:16;101521.91;;;2.20;93.96
76297;BME280;65104;52.994;6.552;2022-12-07T08:53:42;101530.28;;;2.19;93.68
76297;BME280;65104;52.994;6.552;2022-12-07T08:56:11;101537.66;;;2.16;93.31
76297;BME280;65104;52.994;6.552;2022-12-07T08:58:38;101544.31;;;2.14;92.98
76297;BME280;65104;52.994;6.552;2022-12-07T09:01:04;101545.97;;;2.13;93.38
76297;BME280;65104;52.994;6.552;2022-12-07T09:03:30;101543.16;;;2.22;92.87
76297;BME280;65104;52.994;6.552;2022-12-07T09:05:57;101541.66;;;2.25;92.49
76297;BME280;65104;52.994;6.552;2022-12-07T09:08:34;101548.59;;;2.28;93.32
76297;BME280;65104;52.994;6.552;2022-12-07T09:11:00;101556.56;;;2.34;92.40
76297;BME280;65104;52.994;6.552;2022-12-07T09:13:26;101550.31;;;2.55;92.65
76297;BME280;65104;52.994;6.552;2022-12-07T09:15:51;101544.41;;;2.70;91.93
76297;BME280;65104;52.994;6.552;2022-12-07T09:18:17;101545.41;;;2.72;92.60
76297;BME280;65104;52.994;6.552;2022-12-07T09:20:42;101534.00;;;2.65;92.60
76297;BME280;65104;52.994;6.552;2022-12-07T09:23:07;101537.31;;;2.77;91.54
76297;BME280;65104;52.994;6.552;2022-12-07T09:25:34;101538.53;;;2.84;91.56
76297;BME280;65104;52.994;6.552;2022-12-07T09:28:00;101542.69;;;2.96;91.92
76297;BME280;65104;52.994;6.552;2022-12-07T09:30:26;101541.88;;;3.11;91.66
76297;BME280;65104;52.994;6.552;2022-12-07T09:32:53;101555.19;;;3.21;90.28
76297;BME280;65104;52.994;6.552;2022-12-07T09:35:19;101558.31;;;3.17;90.79
76297;BME280;65104;52.994;6.552;2022-12-07T09:37:45;101561.22;;;3.23;91.00
76297;BME280;65104;52.994;6.552;2022-12-07T09:40:10;101562.53;;;3.31;90.99
76297;BME280;65104;52.994;6.552;2022-12-07T09:42:38;101568.03;;;3.24;90.95
76297;BME280;65104;52.994;6.552;2022-12-07T09:45:25;101555.34;;;3.24;91.70
76297;BME280;65104;52.994;6.552;2022-12-07T09:47:52;101542.66;;;3.24;91.23
76297;BME280;65104;52.994;6.552;2022-12-07T09:50:25;101538.75;;;3.29;91.15
76297;BME280;65104;52.994;6.552;2022-12-07T09:52:55;101546.38;;;3.29;90.86
76297;BME280;65104;52.994;6.552;2022-12-07T09:55:25;101554.56;;;3.25;90.67
76297;BME280;65104;52.994;6.552;2022-12-07T09:57:53;101551.00;;;3.22;91.22
76297;BME280;65104;52.994;6.552;2022-12-07T10:00:22;101547.84;;;3.26;91.06
76297;BME280;65104;52.994;6.552;2022-12-07T10:03:08;101546.78;;;3.22;92.10
76297;BME280;65104;52.994;6.552;2022-12-07T10:05:40;101545.75;;;3.33;91.52
76297;BME280;65104;52.994;6.552;2022-12-07T10:08:10;101539.78;;;3.33;91.32
76297;BME280;65104;52.994;6.552;2022-12-07T10:10:37;101532.63;;;3.40;91.91
76297;BME280;65104;52.994;6.552;2022-12-07T10:13:14;101528.44;;;3.56;90.92
76297;BME280;65104;52.994;6.552;2022-12-07T10:15:47;101525.63;;;3.51;90.63
76297;BME280;65104;52.994;6.552;2022-12-07T10:18:39;101532.28;;;3.49;90.25
76297;BME280;65104;52.994;6.552;2022-12-07T10:29:17;101531.06;;;4.01;90.16
76297;BME280;65104;52.994;6.552;2022-12-07T10:31:45;101524.56;;;4.06;89.96
76297;BME280;65104;52.994;6.552;2022-12-07T10:34:26;101531.06;;;4.01;89.95
76297;BME280;65104;52.994;6.552;2022-12-07T10:36:53;101512.63;;;4.05;88.64
76297;BME280;65104;52.994;6.552;2022-12-07T10:39:21;101515.34;;;4.08;88.08
76297;BME280;65104;52.994;6.552;2022-12-07T10:42:02;101500.69;;;4.19;89.39
76297;BME280;65104;52.994;6.552;2022-12-07T10:44:30;101502.97;;;4.29;88.78
76297;BME280;65104;52.994;6.552;2022-12-07T10:52:30;101494.75;;;4.19;87.51
76297;BME280;65104;52.994;6.552;2022-12-07T10:55:20;101491.09;;;4.30;86.71
76297;BME280;65104;52.994;6.552;2022-12-07T10:58:20;101481.69;;;4.43;86.78
76297;BME280;65104;52.994;6.552;2022-12-07T11:03:40;101474.47;;;5.00;84.28
76297;BME280;65104;52.994;6.552;2022-12-07T11:06:26;101474.06;;;4.76;84.81
76297;BME280;65104;52.994;6.552;2022-12-07T11:11:34;101475.91;;;4.78;85.09
76297;BME280;65104;52.994;6.552;2022-12-07T11:14:03;101476.94;;;4.98;85.21
76297;BME280;65104;52.994;6.552;2022-12-07T11:19:32;101472.41;;;4.76;84.70
76297;BME280;65104;52.994;6.552;2022-12-07T11:30:16;101475.09;;;4.96;84.12
76297;BME280;65104;52.994;6.552;2022-12-07T11:35:50;101458.34;;;5.33;84.39
76297;BME280;65104;52.994;6.552;2022-12-07T11:38:33;101453.03;;;5.46;83.86
76297;BME280;65104;52.994;6.552;2022-12-07T11:41:04;101460.81;;;5.49;81.76
76297;BME280;65104;52.994;6.552;2022-12-07T11:43:56;101461.94;;;5.54;82.91
76297;BME280;65104;52.994;6.552;2022-12-07T11:51:49;101439.91;;;6.08;83.29
76297;BME280;65104;52.994;6.552;2022-12-07T11:54:40;101427.94;;;6.25;80.46
76297;BME280;65104;52.994;6.552;2022-12-07T11:57:14;101416.66;;;6.39;80.14
76297;BME280;65104;52.994;6.552;2022-12-07T11:59:49;101414.41;;;6.27;80.16
76297;BME280;65104;52.994;6.552;2022-12-07T12:02:21;101425.25;;;6.04;80.78
76297;BME280;65104;52.994;6.552;2022-12-07T12:05:16;101423.56;;;6.22;79.23
76297;BME280;65104;52.994;6.552;2022-12-07T12:07:44;101422.47;;;6.17;80.23
76297;BME280;65104;52.994;6.552;2022-12-07T12:10:22;101411.94;;;5.92;80.02
76297;BME280;65104;52.994;6.552;2022-12-07T12:15:57;101416.72;;;5.68;81.62
76297;BME280;65104;52.994;6.552;2022-12-07T12:21:27;101398.81;;;6.02;79.52
76297;BME280;65104;52.994;6.552;2022-12-07T12:24:03;101404.56;;;6.16;80.17
76297;BME280;65104;52.994;6.552;2022-12-07T12:26:32;101395.03;;;5.94;80.52
76297;BME280;65104;52.994;6.552;2022-12-07T12:29:00;101399.88;;;6.25;80.03
76297;BME280;65104;52.994;6.552;2022-12-07T12:33:55;101386.44;;;5.92;81.29
76297;BME280;65104;52.994;6.552;2022-12-07T12:39:17;101390.22;;;5.82;80.46
76297;BME280;65104;52.994;6.552;2022-12-07T12:57:24;101395.69;;;5.03;83.16
76297;BME280;65104;52.994;6.552;2022-12-07T13:15:48;101367.78;;;3.89;83.66
76297;BME280;65104;52.994;6.552;2022-12-07T13:21:02;101359.19;;;3.87;83.84
76297;BME280;65104;52.994;6.552;2022-12-07T13:29:16;101349.97;;;3.73;84.69
76297;BME280;65104;52.994;6.552;2022-12-07T13:36:54;101348.53;;;3.78;85.54
76297;BME280;65104;52.994;6.552;2022-12-07T13:39:25;101343.34;;;3.76;86.58
76297;BME280;65104;52.994;6.552;2022-12-07T13:41:56;101348.38;;;3.75;86.46
76297;BME280;65104;52.994;6.552;2022-12-07T13:44:24;101340.41;;;3.69;86.52
76297;BME280;65104;52.994;6.552;2022-12-07T13:47:16;101343.59;;;3.65;86.69
76297;BME280;65104;52.994;6.552;2022-12-07T13:49:48;101345.94;;;3.62;87.10
76297;BME280;65104;52.994;6.552;2022-12-07T13:52:18;101344.47;;;3.65;86.88
76297;BME280;65104;52.994;6.552;2022-12-07T13:54:54;101344.53;;;3.67;86.53
76297;BME280;65104;52.994;6.552;2022-12-07T13:57:20;101343.59;;;3.65;86.22
76297;BME280;65104;52.994;6.552;2022-12-07T13:59:47;101344.00;;;3.72;85.87
76297;BME280;65104;52.994;6.552;2022-12-07T14:02:19;101351.72;;;3.59;86.49
76297;BME280;65104;52.994;6.552;2022-12-07T14:04:46;101339.75;;;3.57;86.92
76297;BME280;65104;52.994;6.552;2022-12-07T14:07:23;101332.56;;;3.50;86.87
76297;BME280;65104;52.994;6.552;2022-12-07T14:09:56;101338.34;;;3.62;87.19
76297;BME280;65104;52.994;6.552;2022-12-07T14:12:23;101342.13;;;3.54;87.41
76297;BME280;65104;52.994;6.552;2022-12-07T14:14:49;101333.53;;;3.52;87.21
76297;BME280;65104;52.994;6.552;2022-12-07T14:17:19;101328.31;;;3.49;87.78
76297;BME280;65104;52.994;6.552;2022-12-07T14:19:54;101338.47;;;3.49;87.66
76297;BME280;65104;52.994;6.552;2022-12-07T14:22:30;101340.84;;;3.46;87.49
76297;BME280;65104;52.994;6.552;2022-12-07T14:25:17;101331.56;;;3.46;88.16
76297;BME280;65104;52.994;6.552;2022-12-07T14:27:53;101330.41;;;3.41;88.24
76297;BME280;65104;52.994;6.552;2022-12-07T14:30:22;101339.69;;;3.40;87.61
76297;BME280;65104;52.994;6.552;2022-12-07T14:33:08;101332.16;;;3.42;88.48
76297;BME280;65104;52.994;6.552;2022-12-07T14:35:37;101333.69;;;3.38;88.81
76297;BME280;65104;52.994;6.552;2022-12-07T14:38:05;101339.97;;;3.45;88.36
76297;BME280;65104;52.994;6.552;2022-12-07T14:40:31;101337.41;;;3.45;89.18
76297;BME280;65104;52.994;6.552;2022-12-07T14:43:02;101335.84;;;3.47;88.69
76297;BME280;65104;52.994;6.552;2022-12-07T14:45:28;101341.81;;;3.48;88.35
76297;BME280;65104;52.994;6.552;2022-12-07T14:47:54;101324.34;;;3.54;88.15
76297;BME280;65104;52.994;6.552;2022-12-07T14:50:20;101331.09;;;3.53;87.73
76297;BME280;65104;52.994;6.552;2022-12-07T14:52:50;101320.75;;;3.50;88.23
76297;BME280;65104;52.994;6.552;2022-12-07T14:55:25;101327.84;;;3.56;88.03
76297;BME280;65104;52.994;6.552;2022-12-07T14:57:51;101327.94;;;3.57;88.20
76297;BME280;65104;52.994;6.552;2022-12-07T15:00:18;101332.16;;;3.57;88.50
76297;BME280;65104;52.994;6.552;2022-12-07T15:02:45;101327.41;;;3.63;88.07
76297;BME280;65104;52.994;6.552;2022-12-07T15:05:11;101335.00;;;3.63;87.46
76297;BME280;65104;52.994;6.552;2022-12-07T15:07:36;101340.09;;;3.63;87.60
76297;BME280;65104;52.994;6.552;2022-12-07T15:10:02;101343.00;;;3.54;88.48
76297;BME280;65104;52.994;6.552;2022-12-07T15:12:28;101336.44;;;3.58;88.09
76297;BME280;65104;52.994;6.552;2022-12-07T15:14:53;101342.31;;;3.57;88.57